Time;durP1;ratioP1;P1;durP2;ratioP2;P2;SDS_P1;SDS_P2;PMS_P1;PMS_P2;Temp;Humidity;BMP_temperature;BMP_pressure;BME280_temperature;BME280_humidity;BME280_pressure;Samples;Min_cycle;Max_cycle;Signal;HPM_P1;HPM_P2
2022/10/20 00:00:13;;;;;;;15.70;9.50;;;11.10;99.90;;;;;;5114614;28;20160;-56
2022/10/20 00:02:39;;;;;;;16.88;9.27;;;11.20;99.90;;;;;;5114450;28;20173;-55
2022/10/20 00:05:05;;;;;;;12.55;8.98;;;11.20;99.90;;;;;;5114457;28;20223;-53
2022/10/20 00:07:30;;;;;;;15.57;10.88;;;11.20;99.90;;;;;;5114371;28;20179;-56
2022/10/20 00:09:56;;;;;;;13.30;9.43;;;11.20;99.90;;;;;;5114446;28;20169;-52
2022/10/20 00:12:21;;;;;;;15.30;8.63;;;11.20;99.90;;;;;;5114427;28;20157;-53
2022/10/20 00:14:47;;;;;;;15.02;9.70;;;11.20;99.90;;;;;;5114308;28;20168;-53
2022/10/20 00:17:12;;;;;;;13.27;8.43;;;11.20;99.90;;;;;;5114292;28;20165;-53
2022/10/20 00:19:38;;;;;;;17.75;10.13;;;11.20;99.90;;;;;;5114245;28;20259;-53
2022/10/20 00:22:03;;;;;;;16.27;9.63;;;11.20;99.90;;;;;;5114488;28;20203;-53
2022/10/20 00:24:29;;;;;;;20.85;10.77;;;11.20;99.90;;;;;;5114310;28;20208;-52
2022/10/20 00:26:54;;;;;;;14.57;9.70;;;11.20;99.90;;;;;;5114084;28;20184;-52
2022/10/20 00:29:20;;;;;;;17.83;10.05;;;11.20;99.90;;;;;;5114064;28;20650;-53
2022/10/20 00:31:45;;;;;;;19.27;10.73;;;11.20;99.90;;;;;;5113960;28;20569;-52
2022/10/20 00:34:11;;;;;;;18.73;11.45;;;11.30;99.90;;;;;;5113948;28;20169;-52
2022/10/20 00:36:38;;;;;;;17.67;11.02;;;11.30;99.90;;;;;;5113944;28;20168;-52
2022/10/20 00:39:04;;;;;;;19.63;10.05;;;11.30;99.90;;;;;;5114243;28;20168;-53
2022/10/20 00:41:31;;;;;;;15.18;9.80;;;11.30;99.90;;;;;;5113529;28;20173;-53
2022/10/20 00:44:00;;;;;;;17.10;9.55;;;11.40;99.90;;;;;;5113600;28;20257;-53
2022/10/20 00:46:37;;;;;;;15.05;9.10;;;11.40;99.90;;;;;;5095393;28;20511;-53
2022/10/20 00:49:22;;;;;;;14.90;9.00;;;11.40;99.90;;;;;;5113957;28;20175;-56
2022/10/20 00:51:49;;;;;;;16.25;9.73;;;11.30;99.90;;;;;;5113675;28;20165;-53
2022/10/20 00:54:18;;;;;;;13.40;8.90;;;11.30;99.90;;;;;;5113568;28;20237;-55
2022/10/20 00:56:46;;;;;;;16.73;9.23;;;11.30;99.90;;;;;;5113531;28;20561;-54
2022/10/20 00:59:15;;;;;;;14.95;9.48;;;11.30;99.90;;;;;;5113336;28;20217;-52
2022/10/20 01:01:42;;;;;;;14.70;9.07;;;11.20;99.90;;;;;;5113274;28;20157;-55
2022/10/20 01:04:07;;;;;;;16.75;9.88;;;11.30;99.90;;;;;;5113443;28;20204;-53
2022/10/20 01:06:33;;;;;;;14.68;9.43;;;11.30;99.90;;;;;;5113674;28;20168;-55
2022/10/20 01:08:59;;;;;;;16.60;9.88;;;11.20;99.90;;;;;;5113258;28;20164;-55
2022/10/20 01:11:45;;;;;;;16.25;9.77;;;11.30;99.90;;;;;;5113147;28;20583;-53
2022/10/20 01:14:22;;;;;;;12.73;8.25;;;11.20;99.90;;;;;;5113105;28;20164;-55
2022/10/20 01:17:01;;;;;;;17.50;8.90;;;11.30;99.90;;;;;;5113090;28;20239;-53
2022/10/20 01:20:07;;;;;;;15.30;8.90;;;11.20;99.90;;;;;;5113117;28;20168;-53
2022/10/20 01:22:56;;;;;;;13.68;8.13;;;11.20;99.90;;;;;;5094948;28;20572;-55
2022/10/20 01:25:59;;;;;;;11.00;8.43;;;11.30;99.90;;;;;;5112893;28;20223;-56
2022/10/20 01:28:38;;;;;;;12.60;8.23;;;11.30;99.90;;;;;;5113033;28;20164;-53
2022/10/20 01:31:32;;;;;;;14.18;7.85;;;11.30;99.90;;;;;;5113092;28;20308;-55
2022/10/20 01:34:09;;;;;;;10.70;7.85;;;11.30;99.90;;;;;;5112783;28;20290;-55
2022/10/20 01:36:39;;;;;;;18.23;8.15;;;11.30;99.90;;;;;;5112995;28;20212;-54
2022/10/20 01:39:21;;;;;;;11.05;8.40;;;11.30;99.90;;;;;;5113149;28;20521;-53
2022/10/20 01:41:57;;;;;;;12.10;8.32;;;11.30;99.90;;;;;;5112678;28;20164;-53
2022/10/20 01:44:25;;;;;;;12.15;7.57;;;11.30;99.90;;;;;;5112474;28;20192;-53
2022/10/20 01:46:51;;;;;;;11.35;7.80;;;11.30;99.90;;;;;;5112588;28;20180;-56
2022/10/20 01:49:17;;;;;;;14.18;7.47;;;11.20;99.90;;;;;;5112650;28;20187;-54
2022/10/20 01:51:43;;;;;;;15.50;8.07;;;11.20;99.90;;;;;;5111786;28;20169;-54
2022/10/20 01:54:23;;;;;;;11.75;8.00;;;11.20;99.90;;;;;;5112400;28;20221;-55
2022/10/20 01:56:57;;;;;;;10.25;7.65;;;11.20;99.90;;;;;;5112355;28;20161;-53
2022/10/20 01:59:50;;;;;;;9.88;6.65;;;11.20;99.90;;;;;;5112283;28;20687;-54
2022/10/20 02:02:39;;;;;;;11.00;8.13;;;11.20;99.90;;;;;;5112390;28;20161;-52
2022/10/20 02:05:38;;;;;;;18.98;7.72;;;11.20;99.90;;;;;;5112598;28;20211;-54
2022/10/20 02:08:18;;;;;;;12.85;8.05;;;11.20;99.90;;;;;;5112784;28;20160;-53
2022/10/20 02:10:52;;;;;;;11.60;7.63;;;11.10;99.90;;;;;;5112309;28;20194;-57
2022/10/20 02:13:20;;;;;;;12.90;7.75;;;11.10;99.90;;;;;;5112431;28;20531;-55
2022/10/20 02:15:52;;;;;;;14.55;7.63;;;11.10;99.90;;;;;;5112207;28;20228;-56
2022/10/20 02:18:26;;;;;;;12.30;7.70;;;11.10;99.90;;;;;;5112253;28;20562;-55
2022/10/20 02:20:55;;;;;;;24.23;8.60;;;11.10;99.90;;;;;;5094008;28;20168;-53
2022/10/20 02:23:21;;;;;;;14.07;7.15;;;11.10;99.90;;;;;;5112028;28;20643;-54
2022/10/20 02:25:49;;;;;;;13.88;7.57;;;11.10;99.90;;;;;;5112174;28;20179;-54
2022/10/20 02:28:16;;;;;;;12.85;7.90;;;11.10;99.90;;;;;;5112112;28;20168;-53
2022/10/20 02:30:43;;;;;;;11.10;8.07;;;11.10;99.90;;;;;;5111984;28;20632;-55
2022/10/20 02:33:10;;;;;;;10.95;7.53;;;11.10;99.90;;;;;;5112045;28;20244;-53
2022/10/20 02:35:35;;;;;;;10.80;7.50;;;11.10;99.90;;;;;;5112343;28;20252;-53
2022/10/20 02:38:02;;;;;;;12.88;7.85;;;11.10;99.90;;;;;;5112063;28;20188;-53
2022/10/20 02:40:28;;;;;;;12.55;8.27;;;11.10;99.90;;;;;;5112053;28;20248;-54
2022/10/20 02:42:54;;;;;;;11.70;7.53;;;11.00;99.90;;;;;;5111991;28;20222;-53
2022/10/20 02:45:19;;;;;;;9.65;7.05;;;11.10;99.90;;;;;;5111865;28;20597;-54
2022/10/20 02:47:45;;;;;;;9.85;7.78;;;11.10;99.90;;;;;;5111826;28;20566;-54
2022/10/20 02:50:11;;;;;;;11.20;7.70;;;11.10;99.90;;;;;;5093675;28;20175;-56
2022/10/20 02:52:37;;;;;;;16.17;7.70;;;11.10;99.90;;;;;;5112044;28;20522;-53
2022/10/20 02:55:04;;;;;;;8.73;7.00;;;11.00;99.90;;;;;;5112194;28;20165;-53
2022/10/20 02:57:29;;;;;;;11.80;6.93;;;11.00;99.90;;;;;;5111689;28;20204;-56
2022/10/20 02:59:55;;;;;;;9.07;7.38;;;11.00;99.90;;;;;;5111798;28;20184;-54
2022/10/20 03:02:21;;;;;;;11.60;6.50;;;11.00;99.90;;;;;;5111820;28;20202;-54
2022/10/20 03:04:46;;;;;;;9.65;7.05;;;11.00;99.90;;;;;;5115024;28;20711;-52
2022/10/20 03:07:12;;;;;;;10.52;6.22;;;11.00;99.90;;;;;;5115592;28;20253;-52
2022/10/20 03:09:37;;;;;;;10.40;6.70;;;11.00;99.90;;;;;;5115849;28;20178;-52
2022/10/20 03:12:03;;;;;;;14.85;7.65;;;11.00;99.90;;;;;;5116008;28;20243;-53
2022/10/20 03:14:29;;;;;;;11.10;6.88;;;10.90;99.90;;;;;;5115468;28;20173;-53
2022/10/20 03:16:54;;;;;;;10.30;7.38;;;11.00;99.90;;;;;;5115388;28;20169;-52
2022/10/20 03:19:20;;;;;;;10.48;6.80;;;11.00;99.90;;;;;;5115373;28;20160;-52
2022/10/20 03:21:47;;;;;;;10.25;6.28;;;10.90;99.90;;;;;;5115332;28;20531;-52
2022/10/20 03:24:13;;;;;;;7.43;6.68;;;10.90;99.90;;;;;;5115486;28;20208;-53
2022/10/20 03:26:38;;;;;;;8.57;6.43;;;11.00;99.90;;;;;;5115237;28;20164;-53
2022/10/20 03:29:04;;;;;;;10.02;7.03;;;10.90;99.90;;;;;;5115778;28;20168;-52
2022/10/20 03:31:30;;;;;;;8.02;6.35;;;10.90;99.90;;;;;;5115121;28;20681;-52
2022/10/20 03:33:55;;;;;;;10.27;6.60;;;10.90;99.90;;;;;;5115342;28;20173;-52
2022/10/20 03:36:21;;;;;;;7.63;6.65;;;10.90;99.90;;;;;;5115098;28;20172;-52
2022/10/20 03:38:47;;;;;;;8.23;6.05;;;10.90;99.90;;;;;;5115012;28;20176;-52
2022/10/20 03:41:12;;;;;;;12.38;6.63;;;10.90;99.90;;;;;;5115002;28;20624;-52
2022/10/20 03:43:39;;;;;;;9.18;6.35;;;10.90;99.90;;;;;;5114840;28;20651;-52
2022/10/20 03:46:07;;;;;;;8.55;6.55;;;10.90;99.90;;;;;;5115280;28;20176;-53
2022/10/20 03:48:33;;;;;;;8.13;6.47;;;10.90;99.90;;;;;;5115226;28;20614;-53
2022/10/20 03:51:00;;;;;;;8.35;6.30;;;10.90;99.90;;;;;;5114738;28;20168;-52
2022/10/20 03:53:25;;;;;;;13.05;6.80;;;10.90;99.90;;;;;;5114727;28;20164;-52
2022/10/20 03:55:51;;;;;;;11.18;6.18;;;10.90;99.90;;;;;;5114610;28;20187;-53
2022/10/20 03:58:17;;;;;;;12.15;7.05;;;11.00;99.90;;;;;;5114538;28;20212;-53
2022/10/20 04:00:42;;;;;;;9.50;6.28;;;10.90;99.90;;;;;;5114709;28;20173;-53
2022/10/20 04:03:08;;;;;;;13.40;6.53;;;10.90;99.90;;;;;;5114415;28;20175;-52
2022/10/20 04:05:33;;;;;;;13.15;6.93;;;10.90;99.90;;;;;;5114834;28;20173;-54
2022/10/20 04:07:59;;;;;;;7.30;6.05;;;11.00;99.90;;;;;;5114543;28;20161;-54
2022/10/20 04:10:25;;;;;;;10.35;6.00;;;10.90;99.90;;;;;;5114351;28;20173;-53
2022/10/20 04:12:50;;;;;;;9.35;6.90;;;10.90;99.90;;;;;;5114359;28;20213;-53
2022/10/20 04:15:17;;;;;;;13.73;6.70;;;10.90;99.90;;;;;;5113920;28;20175;-54
2022/10/20 04:17:43;;;;;;;12.68;6.57;;;10.90;99.90;;;;;;5114386;28;20175;-55
2022/10/20 04:20:09;;;;;;;9.65;6.53;;;10.90;99.90;;;;;;5114030;28;20251;-55
2022/10/20 04:22:34;;;;;;;8.85;6.65;;;10.90;99.90;;;;;;5096294;28;20280;-55
2022/10/20 04:25:00;;;;;;;10.18;6.63;;;10.90;99.90;;;;;;5114088;28;20207;-55
2022/10/20 04:27:27;;;;;;;12.77;5.97;;;10.90;99.90;;;;;;5113987;28;20191;-54
2022/10/20 04:29:52;;;;;;;10.52;6.63;;;10.90;99.90;;;;;;5114027;28;20529;-55
2022/10/20 04:32:18;;;;;;;12.20;6.07;;;10.90;99.90;;;;;;5114093;28;20169;-55
2022/10/20 04:34:43;;;;;;;7.63;6.28;;;10.90;99.90;;;;;;5114198;28;20169;-56
2022/10/20 04:37:09;;;;;;;8.35;5.90;;;10.90;99.90;;;;;;5113859;28;20236;-54
2022/10/20 04:39:34;;;;;;;10.00;7.07;;;10.90;99.90;;;;;;5114220;28;20192;-56
2022/10/20 04:42:00;;;;;;;9.75;6.03;;;10.90;99.90;;;;;;5113759;28;20270;-56
2022/10/20 04:44:26;;;;;;;12.15;5.78;;;10.90;99.90;;;;;;5113552;28;20283;-55
2022/10/20 04:46:53;;;;;;;8.15;6.85;;;11.00;99.90;;;;;;5113672;28;20218;-55
2022/10/20 04:49:19;;;;;;;9.70;6.05;;;10.90;99.90;;;;;;5113582;28;20251;-54
2022/10/20 04:51:44;;;;;;;7.18;5.35;;;14.20;99.90;;;;;;5095377;28;20255;-53
2022/10/20 04:54:10;;;;;;;8.98;5.97;;;11.00;99.90;;;;;;5113426;28;20642;-53
2022/10/20 04:56:35;;;;;;;10.75;6.18;;;10.90;99.90;;;;;;5113476;28;20164;-52
2022/10/20 04:59:02;;;;;;;8.02;5.32;;;10.90;99.90;;;;;;5113614;28;20644;-53
2022/10/20 05:01:29;;;;;;;9.00;5.57;;;10.90;99.90;;;;;;5113331;28;20267;-53
2022/10/20 05:03:54;;;;;;;13.82;7.05;;;10.90;99.90;;;;;;5113280;28;20547;-55
2022/10/20 05:06:23;;;;;;;12.65;6.90;;;10.90;99.90;;;;;;5113339;28;20269;-53
2022/10/20 05:08:54;;;;;;;10.45;7.15;;;10.90;99.90;;;;;;5113160;28;20161;-54
2022/10/20 05:11:21;;;;;;;12.40;7.55;;;10.90;99.90;;;;;;5113149;28;20183;-53
2022/10/20 05:13:47;;;;;;;18.67;9.27;;;11.00;99.90;;;;;;5113189;28;20164;-53
2022/10/20 05:16:13;;;;;;;10.27;6.38;;;11.00;99.90;;;;;;5113463;28;20198;-53
2022/10/20 05:18:39;;;;;;;14.35;8.55;;;10.90;99.90;;;;;;5113317;28;20168;-53
2022/10/20 05:21:07;;;;;;;11.65;7.00;;;10.90;99.90;;;;;;5113469;28;20161;-53
2022/10/20 05:23:32;;;;;;;9.93;6.00;;;10.90;99.90;;;;;;5113312;28;20667;-54
2022/10/20 05:26:01;;;;;;;13.73;5.82;;;10.90;99.90;;;;;;5112873;28;20181;-59
2022/10/20 05:28:27;;;;;;;15.73;9.65;;;10.90;99.90;;;;;;5094236;28;20187;-56
2022/10/20 05:30:52;;;;;;;12.18;8.57;;;10.90;99.90;;;;;;5112843;28;20169;-55
2022/10/20 05:33:18;;;;;;;9.88;7.03;;;10.90;99.90;;;;;;5112779;28;20176;-55
2022/10/20 05:35:43;;;;;;;11.05;8.38;;;10.90;99.90;;;;;;5113031;28;20181;-55
2022/10/20 05:38:09;;;;;;;17.90;10.10;;;10.90;99.90;;;;;;5112618;28;20207;-55
2022/10/20 05:40:34;;;;;;;18.40;8.45;;;10.90;99.90;;;;;;5112892;28;20176;-55
2022/10/20 05:43:00;;;;;;;14.52;9.00;;;10.90;99.90;;;;;;5112332;28;20180;-55
2022/10/20 05:45:25;;;;;;;15.30;8.55;;;10.90;99.90;;;;;;5112495;28;20211;-54
2022/10/20 05:47:51;;;;;;;10.60;7.57;;;10.90;99.90;;;;;;5094018;28;20172;-54
2022/10/20 05:50:16;;;;;;;11.20;7.45;;;10.90;99.90;;;;;;5094164;28;20172;-54
2022/10/20 05:52:42;;;;;;;11.68;6.43;;;10.90;99.90;;;;;;5112504;28;20164;-54
2022/10/20 05:55:08;;;;;;;12.40;8.65;;;10.90;99.90;;;;;;5112509;28;20248;-56
2022/10/20 05:57:34;;;;;;;9.73;6.78;;;10.90;99.90;;;;;;5112639;28;20621;-54
2022/10/20 05:59:59;;;;;;;16.42;9.57;;;10.90;99.90;;;;;;5112432;28;20164;-55
2022/10/20 06:02:25;;;;;;;12.05;7.10;;;10.90;99.90;;;;;;5112262;28;20175;-57
2022/10/20 06:04:50;;;;;;;12.05;7.35;;;10.90;99.90;;;;;;5112183;28;20221;-55
2022/10/20 06:07:16;;;;;;;8.65;6.70;;;10.90;99.90;;;;;;5112220;28;20255;-54
2022/10/20 06:09:41;;;;;;;9.57;7.25;;;10.90;99.90;;;;;;5112474;28;20251;-57
2022/10/20 06:12:07;;;;;;;8.30;6.13;;;10.90;99.90;;;;;;5112224;28;20164;-54
2022/10/20 06:14:33;;;;;;;10.60;8.07;;;10.90;99.90;;;;;;5112566;28;20168;-54
2022/10/20 06:16:58;;;;;;;7.85;6.40;;;11.00;99.90;;;;;;5093842;28;20172;-57
2022/10/20 06:19:24;;;;;;;12.77;6.90;;;11.00;99.90;;;;;;5112219;28;20200;-56
2022/10/20 06:21:50;;;;;;;13.75;7.05;;;11.00;99.90;;;;;;5093843;28;20173;-57
2022/10/20 06:24:16;;;;;;;13.50;7.82;;;11.00;99.90;;;;;;5111945;28;20218;-56
2022/10/20 06:26:43;;;;;;;12.95;7.30;;;11.00;99.90;;;;;;5112274;28;20168;-54
2022/10/20 06:29:14;;;;;;;15.18;7.45;;;11.00;99.90;;;;;;5111908;28;20251;-54
2022/10/20 06:31:48;;;;;;;10.30;6.63;;;11.00;99.90;;;;;;5111862;28;20198;-54
2022/10/20 06:34:17;;;;;;;10.40;6.05;;;11.00;99.90;;;;;;5112003;28;20165;-54
2022/10/20 06:36:43;;;;;;;11.73;6.03;;;11.10;99.90;;;;;;5112201;28;20176;-54
2022/10/20 06:39:18;;;;;;;9.52;6.55;;;11.10;99.90;;;;;;5114325;28;20167;-55
2022/10/20 06:41:49;;;;;;;12.18;6.72;;;11.10;99.90;;;;;;5116348;28;20163;-54
2022/10/20 06:44:19;;;;;;;12.02;6.63;;;11.10;99.90;;;;;;5116225;28;20208;-54
2022/10/20 06:46:44;;;;;;;12.02;7.47;;;11.10;99.90;;;;;;5116073;28;20621;-54
2022/10/20 06:49:11;;;;;;;8.27;6.32;;;11.20;99.90;;;;;;5115884;28;20255;-54
2022/10/20 06:51:36;;;;;;;12.57;6.88;;;11.20;99.90;;;;;;5115786;28;20165;-54
2022/10/20 06:54:03;;;;;;;16.23;8.52;;;11.20;99.90;;;;;;5116270;28;20531;-54
2022/10/20 06:56:31;;;;;;;9.38;6.80;;;11.30;99.90;;;;;;5115811;28;20169;-54
2022/10/20 06:58:58;;;;;;;14.40;7.00;;;11.30;99.90;;;;;;5115525;28;20220;-54
2022/10/20 07:01:25;;;;;;;12.25;7.38;;;11.30;99.90;;;;;;5115668;28;20160;-54
2022/10/20 07:03:53;;;;;;;9.52;6.78;;;11.40;99.90;;;;;;5115748;28;20246;-54
2022/10/20 07:06:24;;;;;;;10.77;6.70;;;11.40;99.90;;;;;;5115859;28;20218;-54
2022/10/20 07:08:52;;;;;;;12.50;6.78;;;11.40;99.90;;;;;;5115349;28;20226;-55
2022/10/20 07:11:20;;;;;;;10.80;7.22;;;11.40;99.90;;;;;;5115494;28;20255;-54
2022/10/20 07:13:48;;;;;;;9.70;6.90;;;11.40;99.90;;;;;;5115753;28;20200;-54
2022/10/20 07:16:17;;;;;;;11.40;7.07;;;11.40;99.90;;;;;;5115396;28;20697;-60
2022/10/20 07:18:42;;;;;;;11.40;6.50;;;11.50;99.90;;;;;;5115684;28;20168;-56
2022/10/20 07:21:21;;;;;;;12.77;7.50;;;11.50;99.90;;;;;;5115420;28;20157;-55
2022/10/20 07:23:48;;;;;;;9.40;6.97;;;11.50;99.90;;;;;;5115452;28;20189;-56
2022/10/20 07:26:24;;;;;;;8.88;7.05;;;11.60;99.90;;;;;;5115203;28;20226;-56
2022/10/20 07:28:53;;;;;;;9.93;6.35;;;11.60;99.90;;;;;;5115204;28;20164;-56
2022/10/20 07:31:25;;;;;;;9.73;6.53;;;11.60;99.90;;;;;;5114968;28;20173;-56
2022/10/20 07:33:51;;;;;;;8.68;6.40;;;11.70;99.90;;;;;;5115082;28;20160;-55
2022/10/20 07:36:25;;;;;;;8.88;7.07;;;11.80;99.90;;;;;;5115102;28;20539;-56
2022/10/20 07:38:53;;;;;;;10.15;6.90;;;11.80;99.90;;;;;;5115050;28;20259;-55
2022/10/20 07:41:19;;;;;;;11.43;7.10;;;11.90;99.90;;;;;;5095164;28;20252;-54
2022/10/20 07:43:44;;;;;;;8.40;6.40;;;11.90;99.90;;;;;;5092769;28;20276;-55
2022/10/20 07:46:11;;;;;;;8.13;6.53;;;11.90;99.90;;;;;;5092995;28;20193;-53
2022/10/20 07:48:37;;;;;;;9.70;6.82;;;12.00;99.90;;;;;;5093035;28;20252;-55
2022/10/20 07:51:25;;;;;;;10.40;6.68;;;12.00;99.90;;;;;;5092348;28;20166;-57
2022/10/20 07:54:02;;;;;;;11.18;6.78;;;12.10;99.90;;;;;;5093000;28;20244;-55
2022/10/20 07:56:31;;;;;;;8.82;6.50;;;12.10;99.90;;;;;;5093058;28;20168;-54
2022/10/20 07:58:57;;;;;;;10.15;6.63;;;12.20;99.90;;;;;;5092709;28;20217;-57
2022/10/20 08:01:23;;;;;;;8.48;7.63;;;12.20;99.90;;;;;;5092929;28;20177;-58
2022/10/20 08:03:49;;;;;;;12.15;7.05;;;12.70;99.90;;;;;;5092674;28;20193;-53
2022/10/20 08:06:15;;;;;;;12.68;6.82;;;12.30;99.90;;;;;;5074725;28;20698;-47
2022/10/20 08:08:40;;;;;;;15.35;6.68;;;12.30;99.90;;;;;;5092709;28;20165;-52
2022/10/20 08:11:06;;;;;;;11.80;7.45;;;12.40;99.90;;;;;;5093157;28;20176;-50
2022/10/20 08:13:32;;;;;;;7.82;7.03;;;12.40;99.90;;;;;;5093078;28;20200;-51
2022/10/20 08:15:57;;;;;;;7.93;6.55;;;12.50;99.90;;;;;;5092685;28;20490;-58
2022/10/20 08:18:23;;;;;;;12.27;7.55;;;12.50;99.90;;;;;;5092415;28;20168;-51
2022/10/20 08:20:49;;;;;;;9.20;7.22;;;12.50;99.90;;;;;;5092518;28;20165;-54
2022/10/20 08:23:15;;;;;;;9.68;6.40;;;12.50;99.90;;;;;;5092369;28;20158;-49
2022/10/20 08:25:41;;;;;;;12.55;7.78;;;12.50;99.90;;;;;;5092208;28;20589;-48
2022/10/20 08:28:07;;;;;;;8.70;6.45;;;12.50;99.90;;;;;;5092231;28;20248;-52
2022/10/20 08:30:33;;;;;;;12.60;7.38;;;12.50;99.90;;;;;;5074377;28;20535;-47
2022/10/20 08:32:59;;;;;;;10.90;6.72;;;12.60;99.90;;;;;;5092170;28;20158;-54
2022/10/20 08:35:25;;;;;;;12.18;8.00;;;12.60;99.90;;;;;;5092153;28;20240;-59
2022/10/20 08:37:51;;;;;;;9.32;6.90;;;12.60;99.90;;;;;;5092332;28;20169;-54
2022/10/20 08:40:20;;;;;;;10.52;7.80;;;12.70;99.90;;;;;;5073986;28;20173;-49
2022/10/20 08:42:46;;;;;;;12.63;7.65;;;12.80;99.90;;;;;;5091880;28;20659;-52
2022/10/20 08:45:18;;;;;;;7.72;6.93;;;12.90;99.90;;;;;;5091902;28;20292;-50
2022/10/20 08:47:45;;;;;;;9.65;6.70;;;13.00;99.90;;;;;;5092013;28;20598;-51
2022/10/20 08:50:15;;;;;;;16.50;7.28;;;13.00;99.90;;;;;;5091870;28;20685;-52
2022/10/20 08:52:42;;;;;;;10.40;7.15;;;13.00;99.90;;;;;;5092112;28;20170;-51
2022/10/20 08:55:24;;;;;;;10.57;7.03;;;12.90;99.90;;;;;;5091613;28;20165;-52
2022/10/20 08:57:50;;;;;;;12.45;6.80;;;12.90;99.90;;;;;;5091343;28;20212;-51
2022/10/20 09:00:17;;;;;;;9.50;6.78;;;13.00;99.90;;;;;;5091604;28;20185;-52
2022/10/20 09:02:45;;;;;;;11.90;7.40;;;13.00;99.90;;;;;;5091382;28;20161;-52
2022/10/20 09:05:13;;;;;;;14.40;7.60;;;13.00;99.90;;;;;;5091702;28;20377;-52
2022/10/20 09:07:39;;;;;;;14.38;7.00;;;13.00;99.90;;;;;;5056687;28;20601;-51
2022/10/20 09:10:23;;;;;;;9.73;6.82;;;13.10;99.90;;;;;;5091603;28;20197;-51
2022/10/20 09:12:49;;;;;;;12.30;7.75;;;13.20;99.90;;;;;;5091459;28;20193;-51
2022/10/20 09:15:17;;;;;;;8.15;6.50;;;13.20;99.90;;;;;;5091648;28;20264;-51
2022/10/20 09:18:01;;;;;;;7.55;6.20;;;13.30;99.90;;;;;;5091133;28;20221;-52
2022/10/20 09:20:37;;;;;;;12.40;6.32;;;13.30;99.90;;;;;;5091232;28;20176;-52
2022/10/20 09:23:02;;;;;;;9.70;6.15;;;13.30;99.90;;;;;;5091864;28;20201;-52
2022/10/20 09:25:29;;;;;;;9.40;6.85;;;13.30;99.90;;;;;;5090962;28;20233;-52
2022/10/20 09:27:57;;;;;;;8.82;6.82;;;13.30;99.90;;;;;;5091031;28;20169;-52
2022/10/20 09:30:32;;;;;;;10.38;6.10;;;13.30;99.90;;;;;;5091064;28;20174;-54
2022/10/20 09:32:58;;;;;;;7.30;6.13;;;13.30;99.90;;;;;;5091264;28;20169;-54
2022/10/20 09:35:31;;;;;;;7.50;6.07;;;13.30;99.90;;;;;;5090999;28;20256;-53
2022/10/20 09:38:02;;;;;;;8.57;6.60;;;13.20;99.90;;;;;;5090887;28;20257;-54
2022/10/20 09:40:29;;;;;;;9.48;6.68;;;13.10;99.90;;;;;;5090874;28;20158;-54
2022/10/20 09:42:58;;;;;;;9.70;7.38;;;13.10;99.90;;;;;;5091125;28;20180;-53
2022/10/20 09:45:30;;;;;;;11.52;7.07;;;13.00;99.90;;;;;;5090798;28;20294;-53
2022/10/20 09:48:06;;;;;;;9.18;7.07;;;13.00;99.90;;;;;;5090853;28;20652;-53
2022/10/20 09:50:38;;;;;;;12.95;7.00;;;13.00;99.90;;;;;;5091448;28;20168;-51
2022/10/20 09:53:14;;;;;;;8.90;7.03;;;13.00;99.90;;;;;;5091585;28;20177;-51
2022/10/20 09:55:47;;;;;;;10.98;7.43;;;13.10;99.90;;;;;;5092061;28;20181;-52
2022/10/20 09:58:31;;;;;;;13.68;7.53;;;13.10;99.90;;;;;;5091932;28;20220;-52
2022/10/20 10:01:10;;;;;;;17.25;8.30;;;13.10;99.90;;;;;;5092047;28;20177;-51
2022/10/20 10:03:50;;;;;;;10.68;7.55;;;13.10;99.90;;;;;;5091850;28;20161;-51
2022/10/20 10:06:24;;;;;;;13.82;7.95;;;13.10;99.90;;;;;;5092137;28;20222;-51
2022/10/20 10:08:50;;;;;;;13.90;8.18;;;13.10;99.90;;;;;;5091820;28;20165;-52
2022/10/20 10:11:18;;;;;;;13.80;8.52;;;13.10;99.90;;;;;;5091867;28;20172;-51
2022/10/20 10:13:47;;;;;;;11.63;8.23;;;13.10;99.90;;;;;;5091290;28;20211;-51
2022/10/20 10:16:15;;;;;;;10.25;8.02;;;13.20;99.90;;;;;;5091828;28;20636;-52
2022/10/20 10:18:44;;;;;;;13.90;8.55;;;13.20;99.90;;;;;;5091878;28;20572;-52
2022/10/20 10:21:14;;;;;;;11.23;7.63;;;13.20;99.90;;;;;;5092093;28;20165;-51
2022/10/20 10:23:54;;;;;;;11.93;8.55;;;13.20;99.90;;;;;;5091795;28;20192;-51
2022/10/20 10:26:41;;;;;;;12.88;9.20;;;13.30;99.90;;;;;;5091686;28;20177;-52
2022/10/20 10:29:22;;;;;;;14.23;8.15;;;13.40;99.90;;;;;;5091696;28;20157;-51
2022/10/20 10:32:00;;;;;;;9.65;8.13;;;13.50;99.90;;;;;;5091629;28;20178;-52
2022/10/20 10:35:03;;;;;;;18.98;9.40;;;13.50;99.90;;;;;;5091613;28;20195;-50
2022/10/20 10:37:30;;;;;;;12.13;8.30;;;13.40;99.90;;;;;;5073799;28;20164;-50
2022/10/20 10:39:56;;;;;;;14.38;8.93;;;13.40;99.90;;;;;;5073473;28;20176;-50
2022/10/20 10:42:53;;;;;;;13.45;9.45;;;13.30;99.90;;;;;;5091593;28;20178;-50
2022/10/20 10:46:12;;;;;;;11.23;8.93;;;13.30;99.90;;;;;;5085479;28;20217;-50
2022/10/20 10:48:41;;;;;;;15.52;9.90;;;13.30;99.90;;;;;;5076842;28;20178;-50
2022/10/20 10:51:18;;;;;;;15.45;9.30;;;13.20;99.90;;;;;;5091584;28;20248;-50
2022/10/20 10:53:59;;;;;;;15.45;9.30;;;13.20;99.90;;;;;;5091455;28;20175;-50
2022/10/20 10:56:42;;;;;;;12.77;8.80;;;13.30;99.90;;;;;;5073346;28;20192;-50
2022/10/20 10:59:26;;;;;;;14.65;8.52;;;13.20;99.90;;;;;;5091241;28;20688;-50
2022/10/20 11:02:00;;;;;;;11.80;9.02;;;13.10;99.90;;;;;;5091449;28;20164;-50
2022/10/20 11:05:00;;;;;;;14.52;9.43;;;13.10;99.90;;;;;;5091537;28;20234;-50
2022/10/20 11:07:51;;;;;;;13.18;9.27;;;13.00;99.90;;;;;;5091388;28;20177;-50
2022/10/20 11:10:21;;;;;;;13.73;9.40;;;13.00;99.90;;;;;;5091291;28;20161;-50
2022/10/20 11:13:02;;;;;;;17.48;10.70;;;13.00;99.90;;;;;;5091213;28;20170;-50
2022/10/20 11:15:49;;;;;;;13.23;9.35;;;13.00;99.90;;;;;;5091302;28;20164;-50
2022/10/20 11:18:49;;;;;;;13.75;9.82;;;12.90;99.90;;;;;;5091273;28;20169;-50
2022/10/20 11:21:40;;;;;;;12.20;9.35;;;12.90;99.90;;;;;;5091248;28;20165;-49
2022/10/20 11:24:35;;;;;;;13.07;10.35;;;12.90;99.90;;;;;;5091662;28;20193;-50
2022/10/20 11:27:11;;;;;;;21.55;10.90;;;12.90;99.90;;;;;;5095130;28;20540;-50
2022/10/20 11:29:44;;;;;;;18.80;10.70;;;12.90;99.90;;;;;;5094871;28;20585;-49
2022/10/20 11:32:28;;;;;;;17.85;11.45;;;12.80;99.90;;;;;;5094746;28;20175;-50
2022/10/20 11:35:46;;;;;;;20.10;11.52;;;12.80;99.90;;;;;;5094765;28;20162;-50
2022/10/20 11:38:33;;;;;;;17.88;11.55;;;12.90;99.90;;;;;;5090819;28;20180;-49
2022/10/20 11:41:07;;;;;;;18.27;12.93;;;12.90;99.90;;;;;;5095027;28;20173;-49
2022/10/20 11:43:47;;;;;;;19.92;13.43;;;12.80;99.90;;;;;;5094712;28;20189;-50
2022/10/20 11:46:20;;;;;;;16.45;12.75;;;12.80;99.90;;;;;;5094505;28;20177;-49
2022/10/20 11:48:51;;;;;;;18.65;12.82;;;12.90;99.90;;;;;;5094437;28;20662;-50
2022/10/20 11:51:28;;;;;;;20.15;14.07;;;12.90;99.90;;;;;;5094339;28;20644;-50
2022/10/20 11:54:18;;;;;;;23.13;14.05;;;12.90;99.90;;;;;;5094325;28;20629;-50
2022/10/20 11:57:02;;;;;;;25.85;13.88;;;13.00;99.90;;;;;;5094192;28;20165;-50
2022/10/20 12:00:05;;;;;;;17.25;12.70;;;12.90;99.90;;;;;;5093983;28;20213;-52
2022/10/20 12:02:45;;;;;;;21.63;13.43;;;12.90;99.90;;;;;;5094617;28;20168;-50
2022/10/20 12:05:17;;;;;;;18.10;13.32;;;12.90;99.90;;;;;;5094014;28;20557;-52
2022/10/20 12:07:55;;;;;;;17.02;12.35;;;12.90;99.90;;;;;;5094138;28;20161;-50
2022/10/20 12:10:29;;;;;;;19.95;12.98;;;12.90;99.90;;;;;;5094049;28;20173;-52
2022/10/20 12:13:34;;;;;;;14.68;12.15;;;13.00;99.90;;;;;;5094201;28;20194;-52
2022/10/20 12:15:59;;;;;;;17.45;11.85;;;12.90;99.90;;;;;;5094274;28;20540;-52
2022/10/20 12:18:33;;;;;;;18.73;12.43;;;13.00;99.90;;;;;;5093923;28;20169;-52
2022/10/20 12:21:06;;;;;;;16.08;12.00;;;13.00;99.90;;;;;;5094452;28;20173;-52
2022/10/20 12:23:44;;;;;;;21.55;13.93;;;13.00;99.90;;;;;;5094311;28;20597;-52
2022/10/20 12:26:34;;;;;;;18.58;12.63;;;13.10;99.90;;;;;;5093727;28;20504;-52
2022/10/20 12:29:20;;;;;;;22.90;13.43;;;13.10;99.90;;;;;;5093953;28;20636;-51
2022/10/20 12:32:24;;;;;;;18.13;12.93;;;13.10;99.90;;;;;;5093543;28;20203;-52
2022/10/20 12:34:53;;;;;;;18.90;12.73;;;13.20;99.90;;;;;;5051925;28;20313;-52
2022/10/20 12:37:24;;;;;;;28.13;19.05;;;13.30;99.90;;;;;;5092955;28;20248;-52
2022/10/20 12:39:52;;;;;;;20.42;14.25;;;13.30;99.90;;;;;;5093364;28;20656;-51
2022/10/20 12:42:22;;;;;;;23.65;15.60;;;13.40;99.90;;;;;;5093411;28;20179;-50
2022/10/20 12:44:48;;;;;;;49.08;26.65;;;13.50;99.90;;;;;;5093528;28;20262;-51
2022/10/20 12:47:24;;;;;;;20.35;12.93;;;13.60;99.90;;;;;;5075073;28;20165;-52
2022/10/20 12:49:54;;;;;;;30.77;21.13;;;13.60;99.90;;;;;;5093119;28;20179;-52
2022/10/20 12:52:26;;;;;;;19.55;13.27;;;13.80;99.90;;;;;;5093275;28;20196;-52
2022/10/20 12:55:12;;;;;;;15.07;13.10;;;13.80;99.90;;;;;;5092965;28;20169;-52
2022/10/20 12:57:40;;;;;;;16.13;12.13;;;13.90;99.90;;;;;;5092895;28;20209;-52